createdAt,value
2023-02-23T00:01:25.958Z,54.50
2023-02-23T00:03:56.347Z,57.07
2023-02-23T00:06:24.503Z,55.47
2023-02-23T00:08:52.347Z,55.53
2023-02-23T00:11:20.645Z,55.07
2023-02-23T00:13:52.476Z,54.33
2023-02-23T00:16:24.521Z,54.23
2023-02-23T00:18:53.960Z,56.87
2023-02-23T00:21:34.892Z,54.53
2023-02-23T00:24:10.934Z,55.10
2023-02-23T00:26:39.236Z,56.20
2023-02-23T00:29:13.645Z,55.77
2023-02-23T00:31:40.615Z,57.63
2023-02-23T00:34:07.782Z,56.97
2023-02-23T00:36:35.841Z,56.53
2023-02-23T00:39:17.995Z,55.93
2023-02-23T00:41:46.509Z,58.13
2023-02-23T00:44:16.574Z,56.33
2023-02-23T00:46:44.681Z,56.03
2023-02-23T00:49:13.236Z,57.37
2023-02-23T00:51:40.371Z,60.00
2023-02-23T00:54:08.023Z,59.53
2023-02-23T00:56:35.039Z,59.00
2023-02-23T00:59:02.260Z,59.30
2023-02-23T01:01:29.430Z,61.57
2023-02-23T01:03:56.692Z,59.70
2023-02-23T01:06:23.687Z,59.30
2023-02-23T01:08:56.828Z,60.03
2023-02-23T01:11:28.789Z,62.30
2023-02-23T01:13:58.615Z,60.87
2023-02-23T01:16:28.590Z,58.97
2023-02-23T01:19:01.115Z,60.23
2023-02-23T01:21:31.530Z,60.50
2023-02-23T01:24:00.140Z,62.17
2023-02-23T01:26:34.984Z,62.77
2023-02-23T01:29:05.750Z,63.60
2023-02-23T01:31:36.490Z,64.33
2023-02-23T01:34:04.239Z,61.20
2023-02-23T01:36:35.775Z,63.13
2023-02-23T01:39:06.277Z,61.93
2023-02-23T01:41:35.185Z,61.37
2023-02-23T01:44:04.170Z,63.20
2023-02-23T01:46:45.606Z,61.23
2023-02-23T01:49:20.316Z,64.47
2023-02-23T01:51:51.988Z,64.87
2023-02-23T01:54:29.199Z,63.50
2023-02-23T01:57:00.277Z,63.70
2023-02-23T01:59:38.302Z,63.83
2023-02-23T02:02:05.577Z,62.00
2023-02-23T02:04:44.417Z,66.63
2023-02-23T02:07:23.029Z,65.50
2023-02-23T02:10:21.865Z,64.83
2023-02-23T02:12:56.936Z,64.53
2023-02-23T02:15:27.813Z,68.33
2023-02-23T02:18:09.710Z,67.17
2023-02-23T02:21:06.329Z,68.93
2023-02-23T02:23:55.487Z,65.80
2023-02-23T02:26:46.678Z,69.30
2023-02-23T02:29:51.719Z,65.20
2023-02-23T02:32:39.449Z,66.63
2023-02-23T02:35:09.397Z,64.97
2023-02-23T02:37:47.819Z,65.27
2023-02-23T02:40:29.918Z,69.90
2023-02-23T02:43:21.398Z,66.47
2023-02-23T02:46:11.688Z,67.33
2023-02-23T02:49:02.017Z,69.87
2023-02-23T02:51:35.230Z,67.10
2023-02-23T02:54:11.318Z,70.07
2023-02-23T02:56:42.341Z,69.70
2023-02-23T02:59:34.034Z,69.50
2023-02-23T03:04:54.992Z,66.83
2023-02-23T03:07:48.660Z,68.43
2023-02-23T03:10:55.620Z,68.33
2023-02-23T03:13:56.171Z,67.53
2023-02-23T03:16:44.503Z,70.00
2023-02-23T03:19:32.902Z,69.33
2023-02-23T03:22:38.273Z,71.23
2023-02-23T03:25:41.129Z,69.70
2023-02-23T03:28:38.193Z,70.57
2023-02-23T03:31:32.214Z,70.60
2023-02-23T03:34:34.927Z,69.77
2023-02-23T03:37:54.852Z,74.10
2023-02-23T03:40:48.348Z,71.10
2023-02-23T03:43:42.506Z,69.67
2023-02-23T03:46:31.227Z,75.07
2023-02-23T03:49:21.781Z,72.17
2023-02-23T03:52:12.585Z,70.23
2023-02-23T03:55:06.383Z,70.10
2023-02-23T03:57:55.200Z,71.30
2023-02-23T04:00:48.188Z,70.97
2023-02-23T04:03:36.649Z,71.13
2023-02-23T04:06:26.271Z,69.33
2023-02-23T04:09:14.963Z,69.40
2023-02-23T04:12:10.364Z,69.73
2023-02-23T04:14:43.732Z,69.37
2023-02-23T04:17:11.871Z,68.73
2023-02-23T04:19:38.895Z,71.20
2023-02-23T04:22:05.958Z,74.60
2023-02-23T04:24:32.971Z,70.93
2023-02-23T04:27:00.083Z,72.33
2023-02-23T04:29:27.119Z,73.90
2023-02-23T04:31:54.221Z,74.70
2023-02-23T04:34:21.419Z,69.53
2023-02-23T04:36:49.489Z,68.47
2023-02-23T04:39:16.433Z,69.97
2023-02-23T04:41:43.322Z,72.83
2023-02-23T04:44:10.307Z,72.43
2023-02-23T04:46:37.545Z,71.70
2023-02-23T04:49:04.754Z,70.57
2023-02-23T04:51:34.007Z,70.13
2023-02-23T04:54:01.139Z,71.30
2023-02-23T04:56:28.744Z,70.23
2023-02-23T04:58:55.640Z,70.47
2023-02-23T05:01:22.704Z,73.47
2023-02-23T05:03:50.804Z,74.93
2023-02-23T05:06:18.001Z,72.33
2023-02-23T05:08:45.777Z,73.03
2023-02-23T05:11:13.312Z,73.90
2023-02-23T05:13:40.305Z,92.80
2023-02-23T05:16:08.056Z,75.87
2023-02-23T05:18:35.029Z,81.67
2023-02-23T05:21:07.221Z,93.70
2023-02-23T05:23:35.928Z,79.13
2023-02-23T05:26:06.320Z,105.50
2023-02-23T05:28:34.802Z,78.47
2023-02-23T05:31:03.763Z,94.03
2023-02-23T05:33:31.944Z,87.67
2023-02-23T05:35:59.226Z,84.83
2023-02-23T05:38:27.324Z,77.03
2023-02-23T05:40:54.330Z,76.03
2023-02-23T05:43:21.448Z,72.97
2023-02-23T05:45:48.278Z,72.73
2023-02-23T05:48:15.273Z,71.93
2023-02-23T05:50:42.117Z,73.20
2023-02-23T05:53:10.466Z,74.60
2023-02-23T05:55:37.723Z,73.27
2023-02-23T05:58:04.609Z,72.17
2023-02-23T06:00:31.465Z,72.13
2023-02-23T06:02:58.381Z,72.50
2023-02-23T06:05:25.264Z,79.20
2023-02-23T06:07:52.270Z,76.23
2023-02-23T06:10:19.283Z,73.20
2023-02-23T06:12:46.734Z,74.50
2023-02-23T06:15:13.599Z,74.67
2023-02-23T06:17:40.441Z,89.27
2023-02-23T06:20:07.961Z,94.40
2023-02-23T06:22:34.842Z,76.80
2023-02-23T06:25:05.061Z,74.47
2023-02-23T06:27:32.282Z,86.57
2023-02-23T06:29:59.251Z,73.10
2023-02-23T06:32:27.105Z,72.70
2023-02-23T06:34:53.943Z,77.17
2023-02-23T06:37:20.815Z,72.50
2023-02-23T06:39:48.268Z,71.00
2023-02-23T06:42:15.540Z,73.97
2023-02-23T06:44:42.515Z,101.87
2023-02-23T06:47:10.380Z,74.70
2023-02-23T06:49:37.562Z,76.77
2023-02-23T06:52:04.489Z,73.03
2023-02-23T06:54:31.425Z,72.43
2023-02-23T06:56:58.257Z,74.70
2023-02-23T06:59:25.119Z,73.37
2023-02-23T07:01:52.439Z,98.53
2023-02-23T07:04:19.431Z,94.23
2023-02-23T07:06:46.310Z,72.57
2023-02-23T07:09:13.177Z,79.47
2023-02-23T07:11:41.720Z,79.73
2023-02-23T07:14:15.315Z,79.57
2023-02-23T07:16:48.394Z,72.07
2023-02-23T07:19:15.286Z,69.10
2023-02-23T07:21:42.095Z,73.50
2023-02-23T07:24:09.103Z,67.73
2023-02-23T07:26:36.088Z,69.07
2023-02-23T07:29:03.546Z,70.80
2023-02-23T07:31:30.477Z,70.50
2023-02-23T07:33:57.355Z,69.33
2023-02-23T07:36:24.896Z,70.40
2023-02-23T07:38:51.826Z,71.20
2023-02-23T07:41:18.862Z,70.20
2023-02-23T07:43:45.901Z,90.32
2023-02-23T07:46:15.567Z,90.25
2023-02-23T07:48:45.185Z,90.43
2023-02-23T07:51:17.489Z,85.72
2023-02-23T07:53:45.084Z,73.50
2023-02-23T07:56:12.829Z,81.47
2023-02-23T07:58:41.785Z,82.88
2023-02-23T08:01:10.190Z,81.10
2023-02-23T08:03:37.238Z,79.47
2023-02-23T08:06:04.429Z,79.28
2023-02-23T08:08:31.370Z,82.32
2023-02-23T08:11:05.512Z,77.80
2023-02-23T08:13:32.709Z,75.53
2023-02-23T08:15:59.850Z,74.03
2023-02-23T08:18:27.912Z,78.43
2023-02-23T08:21:02.469Z,76.72
2023-02-23T08:23:33.539Z,75.53
2023-02-23T08:26:01.857Z,73.47
2023-02-23T08:28:30.508Z,61.77
2023-02-23T08:30:57.639Z,58.03
2023-02-23T08:53:01.808Z,51.13
2023-02-23T08:55:28.638Z,69.37
2023-02-23T08:57:55.571Z,71.50
2023-02-23T09:00:22.938Z,72.97
2023-02-23T09:05:24.615Z,75.72
2023-02-23T09:07:51.500Z,61.70
2023-02-23T09:10:20.287Z,59.63
2023-02-23T09:12:47.311Z,57.63
2023-02-23T09:15:14.207Z,61.00
2023-02-23T09:17:44.971Z,54.57
2023-02-23T09:20:13.696Z,57.77
2023-02-23T09:22:48.893Z,56.47
2023-02-23T09:25:19.143Z,53.57
2023-02-23T09:27:46.502Z,59.10
2023-02-23T09:30:17.729Z,58.00
2023-02-23T09:32:45.731Z,53.57
2023-02-23T09:35:12.819Z,52.70
2023-02-23T17:54:10.993Z,10.40
2023-02-23T17:56:38.107Z,12.38
2023-02-23T17:59:05.177Z,11.65
2023-02-23T18:01:32.309Z,11.25
2023-02-23T18:04:00.246Z,9.50
2023-02-23T18:06:27.942Z,9.10
2023-02-23T18:08:57.594Z,9.32
2023-02-23T18:11:25.003Z,9.02
2023-02-23T18:13:52.375Z,8.63
2023-02-23T18:16:19.714Z,9.25
2023-02-23T18:18:48.993Z,10.30
2023-02-23T18:21:20.111Z,10.07
2023-02-23T18:23:47.870Z,10.65
2023-02-23T18:26:24.789Z,10.63
2023-02-23T18:28:52.468Z,10.68
2023-02-23T18:31:22.823Z,11.02
2023-02-23T18:33:53.063Z,10.40
2023-02-23T18:36:22.023Z,9.32
2023-02-23T18:38:49.421Z,10.00
2023-02-23T18:41:16.629Z,8.93
2023-02-23T18:43:43.854Z,9.40
2023-02-23T18:46:12.507Z,10.43
2023-02-23T18:48:40.346Z,10.00
2023-02-23T18:51:12.475Z,8.45
2023-02-23T18:53:39.673Z,7.73
2023-02-23T18:56:08.123Z,7.78
2023-02-23T18:58:35.849Z,7.53
2023-02-23T19:01:02.908Z,9.38
2023-02-23T19:03:29.813Z,8.10
2023-02-23T19:05:57.189Z,6.78
2023-02-23T19:08:24.308Z,10.95
2023-02-23T19:10:52.351Z,8.55
2023-02-23T19:13:22.303Z,8.40
2023-02-23T19:15:49.907Z,9.93
2023-02-23T19:18:17.114Z,8.40
2023-02-23T19:20:44.108Z,8.93
2023-02-23T19:23:13.384Z,7.40
2023-02-23T19:25:40.611Z,6.40
2023-02-23T19:28:09.477Z,7.70
2023-02-23T19:30:36.526Z,8.97
2023-02-23T19:33:04.044Z,8.40
2023-02-23T19:35:31.237Z,9.53
2023-02-23T19:37:58.947Z,8.90
2023-02-23T19:40:28.612Z,7.70
2023-02-23T19:42:56.180Z,7.67
2023-02-23T19:45:24.964Z,7.43
